Tiempo atmosférico en la estación meteorológica de Balsareny, Barcelona (352 m.)



Fecha
DESCASC
Temp. máxima en grados centígrados (hora)
DESCASC
Temp. mínima en grados centígrados (hora)
DESCASC
Temp. media en grados centígrados
DESCASC
Racha de viento máxima en m/sg (hora)
DESCASC
Velocidad máxima media en intervalos de 10 minutos(hora)
DESCASC
Precipitaciones diarias en mm
DESCASC
Precipitaciones de 00:00 a 06:00 en mm
DESCASC
Precipitaciones de 06:00 a 12:00 en mm
DESCASC
Precipitaciones de 12:00 a 18:00 en mm
DESCASC
Precipitaciones de 18:00 a 24:00 en mm
DESCASC
05-12-2019 12 (14:20) 8.5 (23:59) 10.3 6.39 (12:30) 3.89 (00:40) 4.2 3.8 0.2 0.2 0
04-12-2019 12.4 (10:40) 8.7 (17:00) 10.5 13.61 (10:10) 7.78 (10:20) 12.6 0 0 5.8 6.8
03-12-2019 13.1 (15:40) 1.9 (00:00) 7.5 8.89 (16:10) 4.72 (16:10) 0 0 0 0 0
02-12-2019 14.8 (15:00) 0.9 (00:00) 7.9 5.56 (17:10) 3.33 (17:10) 0 0 0 0 0
01-12-2019 14.5 (15:20) 5.3 (00:00) 9.9 4.17 (15:30) 3.06 (15:30) 0.2 0.2 0 0 0
30-11-2019 16.5 (16:10) 7.6 (00:00) 12 4.72 (16:00) 3.06 (16:00) 0 0 0 0 0
29-11-2019 17.1 (15:10) 4.8 (00:00) 11 5.83 (02:50) 4.17 (18:00) 0 0 0 0 0
28-11-2019 17.2 (15:10) 4.2 (00:00) 10.7 10 (12:10) 6.11 (15:50) 0 0 0 0 0
27-11-2019 16.2 (12:20) 7.1 (00:00) 11.7 8.89 (12:30) 5.83 (12:50) 0 0 0 0 0
26-11-2019 16.2 (15:10) 0.9 (00:00) 8.6 5.83 (13:00) 3.61 (12:30) 0.2 0 0 0 0.2
25-11-2019 14.3 (16:00) 0.7 (00:00) 7.5 3.61 (00:10) 2.22 (10:00) 0 0 0 0 0
24-11-2019 14.5 (15:40) 0.3 (00:00) 7.4 7.5 (15:00) 3.89 (15:00) 0 0 0 0 0
23-11-2019 12 (13:40) 5.5 (00:00) 8.8 10 (16:10) 5.28 (01:40) 1.4 1.4 0 0 0
22-11-2019 10.7 (23:59) -1 (-00:0) 4.8 3.33 (20:30) 2.22 (21:40) 15.6 0 1.2 0 14.4
21-11-2019 11.9 (14:20) -2.2 (-00:0) 4.8 8.33 (14:20) 5 (13:40) 0 0 0 0 0
20-11-2019 11.3 (14:30) -5.1 (-00:0) 3.1 5.28 (17:50) 3.61 (14:50) 0 0 0 0 0
19-11-2019 10.8 (15:20) -4 (-00:0) 3.4 4.72 (12:50) 2.78 (12:50) 0 0 0 0 0
18-11-2019 13.2 (14:30) -0.3 (00:00) 6.4 8.06 (15:50) 4.72 (16:50) 0 0 0 0 0
17-11-2019 10.5 (16:00) -3.5 (-00:0) 3.5 5.28 (14:20) 2.78 (16:20) 0 0 0 0 0
16-11-2019 10 (14:20) -1.7 (-00:0) 4.1 7.78 (15:00) 4.44 (16:00) 0 0 0 0 0
15-11-2019 8.8 (15:10) -2.3 (-00:0) 3.3 7.78 (12:50) 4.17 (12:50) 0 0 0 0 0
14-11-2019 8 (13:00) -0.3 (00:00) 3.8 9.72 (13:20) 4.17 (13:30) 3.8 0 3.6 0.2 0
13-11-2019 12.7 (15:30) 0.8 (00:00) 6.7 5.56 (15:20) 3.61 (15:30) 0 0 0 0 0
12-11-2019 15.4 (13:30) -0.6 (-00:0) 7.4 9.17 (12:50) 5.83 (13:00) 0 0 0 0 0
11-11-2019 12.4 (15:00) -1.5 (05:00) 5.4 5 (15:10) 3.33 (15:20) 0 0 0 0 0
10-11-2019 13.9 (14:20) 2.3 (00:00) 8.1 10.83 (02:40) 6.39 (02:40) 0.8 0.8 0 0 0
09-11-2019 13.1 (15:30) -0.9 (-00:0) 6.1 8.89 (12:40) 5.28 (12:40) 0 0 0 0 0
08-11-2019 12.7 (15:00) -0.1 (00:00) 6.3 10 (17:10) 4.44 (17:10) 0 0 0 0 0
07-11-2019 12.8 (15:30) 1.7 (00:00) 7.3 7.5 (17:30) 4.17 (17:30) 0 0 0 0 0
06-11-2019 16.1 (15:50) 3.5 (00:00) 9.8 8.06 (14:10) 5 (14:00) 0 0 0 0 0

Gráficas

Temp. máximas Temp. mínimas Temp. medias Precipitaciones Rachas de viento máximas Velocidades máximas media en intervalos de 10 minutos

Datos horarios

Fecha y hora oficial Temperatura (ºC) Velocidad del viento (km/h) Dirección del viento Racha (km/h) Dirección de racha Precipitación (mm) Presión (hPa) Tendencia (hPa) Humedad (%)
2019-12-05 23:00:00 9.1 8 Noroeste 13 Noroeste 0 -- -- 87
2019-12-05 22:00:00 9.8 5 Noroeste 15 Noroeste 0 -- -- 82
2019-12-05 21:00:00 9.9 10 Noroeste 15 Noroeste 0 -- -- 81
2019-12-05 20:00:00 10.3 6 Noroeste 15 Norte 0 -- -- 79
2019-12-05 19:00:00 10.4 9 Norte 12 Norte 0 -- -- 80
2019-12-05 18:00:00 10.4 6 Norte 11 Noroeste 0 -- -- 81
2019-12-05 17:00:00 10.9 5 Nordeste 21 Este 0 -- -- 78
2019-12-05 16:00:00 11.2 6 Este 14 Este 0 -- -- 77
2019-12-05 15:00:00 11.5 9 Este 15 Este 0.2 -- -- 78
2019-12-05 14:00:00 11.9 4 Norte 18 Este 0 -- -- 79
2019-12-05 13:00:00 11.4 10 Este 23 Este 0 -- -- 83
2019-12-05 12:00:00 11 8 Este 15 Este 0 -- -- 87
2019-12-05 11:00:00 9.6 3 Sur 7 Sur 0 -- -- 97
2019-12-05 10:00:00 9.1 8 Noroeste 14 Nordeste 0.2 -- -- 93
2019-12-05 09:00:00 9.2 2 Sudeste 12 Este 0 -- -- 92
2019-12-05 08:00:00 9.1 9 Nordeste 16 Nordeste 0 -- -- 93
2019-12-05 07:00:00 9.3 11 Norte 18 Norte 0 -- -- 91
2019-12-05 06:00:00 8.7 6 Noroeste 11 Noroeste 0 -- -- 96
2019-12-05 05:00:00 9.3 8 Norte 13 Noroeste 0.2 -- -- 92
2019-12-05 04:00:00 9.3 10 Noroeste 18 Norte 0.2 -- -- 92
2019-12-05 03:00:00 8.7 6 Noroeste 14 Noroeste 0.4 -- -- 94
2019-12-05 02:00:00 8.9 10 Oeste 15 Noroeste 0.6 -- -- 92
2019-12-05 01:00:00 9 11 Noroeste 20 Noroeste 2.4 -- -- 93
2019-12-05 00:00:00 9.2 9 Norte 16 Noroeste 1.6 -- -- 93
2019-12-04 23:00:00 9.3 10 Noroeste 13 Noroeste 0.8 -- -- 92
2019-12-04 22:00:00 9 7 Nordeste 15 Nordeste 0.6 -- -- 95
2019-12-04 21:00:00 9.1 8 Norte 13 Norte 1.8 -- -- 94
2019-12-04 20:00:00 9 8 Noroeste 14 Nordeste 0.8 -- -- 93
2019-12-04 19:00:00 9.2 6 Nordeste 28 Nordeste 1.2 -- -- 91
2019-12-04 18:00:00 9 16 Nordeste 34 Este 0.8 -- -- 92
2019-12-04 17:00:00 8.7 15 Norte 28 Norte 2.6 -- -- 94
2019-12-04 16:00:00 9.4 17 Nordeste 30 Nordeste 2 -- -- 91
2019-12-04 15:00:00 10.5 16 Norte 32 Nordeste 0.4 -- -- 85
2019-12-04 14:00:00 11.4 15 Nordeste 28 Nordeste 0 -- -- 78
2019-12-04 13:00:00 11.5 15 Nordeste 28 Nordeste 0 -- -- 82
2019-12-04 12:00:00 11.6 13 Nordeste 43 Norte 0 -- -- 77
2019-12-04 11:00:00 12.3 22 Nordeste 49 Nordeste 0 -- -- 71
2019-12-04 10:00:00 11.4 25 Nordeste 44 Nordeste 0 -- -- 74
2019-12-04 09:00:00 10.6 14 Nordeste 30 Nordeste 0 -- -- 77
2019-12-04 08:00:00 10.7 19 Nordeste 43 Nordeste 0 -- -- 77
2019-12-04 07:00:00 11.3 14 Nordeste 45 Nordeste 0 -- -- 75
2019-12-04 06:00:00 11.3 18 Nordeste 34 Nordeste 0 -- -- 75
2019-12-04 05:00:00 11.5 16 Este 31 Este 0 -- -- 74
2019-12-04 04:00:00 10.7 8 Nordeste 23 Norte 0 -- -- 76
2019-12-04 03:00:00 10.6 9 Nordeste 29 Nordeste 0 -- -- 76
2019-12-04 02:00:00 10.6 7 Norte 21 Noroeste 0 -- -- 74
2019-12-04 01:00:00 10.8 9 Noroeste 14 Norte 0 -- -- 72
2019-12-04 00:00:00 10.5 10 Noroeste 15 Norte 0 -- -- 74
2019-12-03 23:00:00 10.5 9 Norte 21 Este 0 -- -- 75
2019-12-03 22:00:00 10 14 Norte 26 Nordeste 0 -- -- 77
2019-12-03 21:00:00 9 9 Norte 13 Norte 0 -- -- 79
2019-12-03 20:00:00 9.1 5 Norte 10 Norte 0 -- -- 78
2019-12-03 19:00:00 9.9 7 Norte 19 Este 0 -- -- 75
2019-12-03 18:00:00 10.8 9 Este 20 Este 0 -- -- 71
2019-12-03 17:00:00 11.8 8 Nordeste 32 Este 0 -- -- 65
2019-12-03 16:00:00 13.1 16 Este 31 Nordeste 0 -- -- 59
2019-12-03 15:00:00 12.7 10 Nordeste 23 Este 0 -- -- 61
2019-12-03 14:00:00 11.1 9 Sur 15 Sur 0 -- -- 67
2019-12-03 13:00:00 9.7 5 Norte 14 Norte 0 -- -- 68
2019-12-03 12:00:00 8 5 Norte 12 Nordeste 0 -- -- 74
2019-12-03 11:00:00 6.4 7 Norte 10 Nordeste 0 -- -- 84
2019-12-03 10:00:00 4.9 5 Norte 8 Norte 0 -- -- 89
2019-12-03 09:00:00 3.9 3 Norte 6 Norte 0 -- -- 92
2019-12-03 08:00:00 3.3 3 Norte 5 Norte 0 -- -- 94
2019-12-03 07:00:00 2.8 4 Norte 9 Noroeste 0 -- -- 94
2019-12-03 06:00:00 2.4 4 Norte 6 Norte 0 -- -- 93
2019-12-03 05:00:00 2 4 Norte 10 Norte 0 -- -- 95
2019-12-03 04:00:00 2.2 2 Norte 8 Norte 0 -- -- 95
2019-12-03 03:00:00 2.5 3 Nordeste 8 Norte 0 -- -- 95
2019-12-03 02:00:00 2.8 6 Norte 14 Norte 0 -- -- 96
2019-12-03 01:00:00 2.7 2 Nordeste 9 Noroeste 0 -- -- 96
2019-12-03 00:00:00 2.2 6 Norte 11 Norte 0 -- -- 96
2019-12-02 23:00:00 1.9 6 Norte 9 Norte 0 -- -- 94
2019-12-02 22:00:00 2.9 5 Norte 8 Noroeste 0 -- -- 91
2019-12-02 21:00:00 4.6 3 Norte 8 Noroeste 0 -- -- 86
2019-12-02 20:00:00 7 5 Sudoeste 10 Oeste 0 -- -- 77
2019-12-02 19:00:00 8.8 7 Oeste 11 Noroeste 0 -- -- 68
2019-12-02 18:00:00 9.5 2 Sudoeste 20 Oeste 0 -- -- 69
2019-12-02 17:00:00 11.6 10 Oeste 18 Oeste 0 -- -- 60
2019-12-02 16:00:00 14.3 6 Sudoeste 15 Sudoeste 0 -- -- 51
2019-12-02 15:00:00 14.8 8 Sur 14 Sur 0 -- -- 56
2019-12-02 14:00:00 13.7 9 Sur 16 Sur 0 -- -- 62
2019-12-02 13:00:00 12.3 5 Sur 8 Sur 0 -- -- 67
2019-12-02 12:00:00 9.7 5 Sudeste 8 Sudoeste 0 -- -- 73
2019-12-02 11:00:00 6.8 2 Sudeste 7 Sur 0 -- -- 81
2019-12-02 10:00:00 3.6 2 Nordeste 8 Norte 0 -- -- 99
2019-12-02 09:00:00 1.4 3 Norte 6 Noroeste 0 -- -- 99
2019-12-02 08:00:00 1 4 Noroeste 5 Norte 0 -- -- 98
2019-12-02 07:00:00 1.8 3 Norte 6 Norte 0 -- -- 98
2019-12-02 06:00:00 2.2 3 Norte 8 Norte 0 -- -- 97
2019-12-02 05:00:00 2.3 3 Norte 4 Norte 0 -- -- 98
2019-12-02 04:00:00 2.7 4 Noroeste 8 Norte 0 -- -- 98
2019-12-02 03:00:00 3.3 5 Noroeste 11 Noroeste 0 -- -- 97
2019-12-02 02:00:00 3.8 3 Norte 8 Noroeste 0 -- -- 95
2019-12-02 01:00:00 4.7 6 Noroeste 8 Noroeste 0 -- -- 93
2019-12-02 00:00:00 5.7 3 Sur 9 Norte 0 -- -- 93
2019-12-01 23:00:00 5.8 2 Noroeste 8 Noroeste 0 -- -- 91
2019-12-01 22:00:00 5.9 2 Noroeste 10 Norte 0 -- -- 92
2019-12-01 21:00:00 5.6 6 Norte 10 Noroeste 0 -- -- 90
2019-12-01 20:00:00 6.7 5 Norte 13 Noroeste 0 -- -- 88
2019-12-01 19:00:00 8 7 Noroeste 10 Noroeste 0 -- -- 82
2019-12-01 18:00:00 10.5 3 Sur 10 Oeste 0 -- -- 73
2019-12-01 17:00:00 12.5 5 Sudoeste 11 Sur 0 -- -- 68
2019-12-01 16:00:00 14.5 8 Sur 15 Sur 0 -- -- 64
2019-12-01 15:00:00 14.1 7 Sur 11 Sur 0 -- -- 66
2019-12-01 14:00:00 13.9 5 Sur 11 Sudeste 0 -- -- 66
2019-12-01 13:00:00 11.5 8 Sudeste 13 Sudeste 0 -- -- 75
2019-12-01 12:00:00 11.1 0 Calma 10 Sudoeste 0 -- -- 79
2019-12-01 11:00:00 10.4 4 Sur 8 Sudoeste 0 -- -- 89
2019-12-01 10:00:00 9.3 0 Calma 4 Sudoeste 0 -- -- 98
2019-12-01 09:00:00 8.7 0 Calma 6 Sudeste 0 -- -- 98
2019-12-01 08:00:00 8.8 2 Oeste 6 Noroeste 0 -- -- 98
2019-12-01 07:00:00 8.8 4 Noroeste 8 Noroeste 0 -- -- 97
2019-12-01 06:00:00 9.2 4 Norte 10 Sur 0.2 -- -- 97
2019-12-01 05:00:00 9.2 9 Sudoeste 12 Sur 0 -- -- 98
2019-12-01 04:00:00 9.1 3 Sudoeste 9 Oeste 0 -- -- 98
2019-12-01 03:00:00 9.1 0 Calma 7 Sudeste 0 -- -- 97
2019-12-01 02:00:00 9.2 4 Sudoeste 7 Sudoeste 0 -- -- 95
2019-12-01 01:00:00 9.1 0 Calma 7 Noroeste 0 -- -- 94
2019-12-01 00:00:00 9.4 5 Noroeste 9 Noroeste 0 -- -- 94
2019-11-30 23:00:00 8.7 3 Nordeste 10 Norte 0 -- -- 94
2019-11-30 22:00:00 7.9 6 Norte 8 Norte 0 -- -- 95
2019-11-30 21:00:00 8.6 3 Sudoeste 8 Norte 0 -- -- 93
2019-11-30 20:00:00 10.3 6 Norte 9 Noroeste 0 -- -- 90
2019-11-30 19:00:00 11.4 2 Oeste 9 Oeste 0 -- -- 85
2019-11-30 18:00:00 13.5 3 Oeste 12 Sudoeste 0 -- -- 79
2019-11-30 17:00:00 15.1 9 Sudoeste 13 Sur 0 -- -- 73
2019-11-30 16:00:00 16.2 11 Sur 17 Sur 0 -- -- 69
2019-11-30 15:00:00 15.9 6 Sur 12 Sur 0 -- -- 68
2019-11-30 14:00:00 15.3 7 Sur 13 Sur 0 -- -- 68
2019-11-30 13:00:00 13.2 7 Sur 14 Sur 0 -- -- 75
2019-11-30 12:00:00 11.3 7 Sur 13 Sur 0 -- -- 83
2019-11-30 11:00:00 8.9 2 Sudeste 7 Sur 0 -- -- 92
2019-11-30 10:00:00 8.1 4 Noroeste 8 Oeste 0 -- -- 96
2019-11-30 09:00:00 7.6 7 Noroeste 12 Oeste 0 -- -- 95
2019-11-30 08:00:00 7.8 2 Noroeste 5 Norte 0 -- -- 96
2019-11-30 07:00:00 8.4 3 Sur 7 Sur 0 -- -- 97
2019-11-30 06:00:00 8.6 4 Sur 5 Sur 0 -- -- 97
2019-11-30 05:00:00 8.7 3 Sur 5 Sur 0 -- -- 97
2019-11-30 04:00:00 8.8 3 Sur 6 Sur 0 -- -- 97
2019-11-30 03:00:00 8.9 6 Sur 10 Sur 0 -- -- 96
2019-11-30 02:00:00 9.8 2 Sur 6 Sudoeste 0 -- -- 95
2019-11-30 01:00:00 10 3 Sur 4 Sur 0 -- -- 94
2019-11-30 00:00:00 10.1 2 Norte 8 Norte 0 -- -- 96
2019-11-29 23:00:00 9.9 2 Noroeste 7 Norte 0 -- -- 93
2019-11-29 22:00:00 10.9 0 Calma 5 Sudeste 0 -- -- 91
2019-11-29 21:00:00 11.7 2 Sur 6 Sudoeste 0 -- -- 89
2019-11-29 20:00:00 12.1 0 Calma 12 Sudoeste 0 -- -- 88
2019-11-29 19:00:00 12.9 10 Sur 18 Sur 0 -- -- 84
2019-11-29 18:00:00 13.5 15 Sur 19 Sur 0 -- -- 78
2019-11-29 17:00:00 15.3 10 Sur 17 Sur 0 -- -- 68
2019-11-29 16:00:00 16.4 9 Sur 15 Sur 0 -- -- 66
2019-11-29 15:00:00 17 9 Sur 15 Sur 0 -- -- 64
2019-11-29 14:00:00 16.8 9 Sur 15 Sur 0 -- -- 63
2019-11-29 13:00:00 15.2 4 Norte 8 Norte 0 -- -- 67
2019-11-29 12:00:00 13.5 3 Sudeste 6 Sudeste 0 -- -- 72
2019-11-29 11:00:00 10.5 3 Este 6 Este 0 -- -- 80
2019-11-29 10:00:00 6 0 Calma 9 Norte 0 -- -- 97
2019-11-29 09:00:00 4.8 5 Norte 9 Norte 0 -- -- 95
2019-11-29 08:00:00 5.8 5 Norte 7 Noroeste 0 -- -- 93
2019-11-29 07:00:00 6.9 0 Calma 13 Nordeste 0 -- -- 91
2019-11-29 06:00:00 6.9 4 Nordeste 11 Norte 0 -- -- 92
2019-11-29 05:00:00 7.6 7 Norte 10 Norte 0 -- -- 89
2019-11-29 04:00:00 10 5 Norte 11 Noroeste 0 -- -- 81
2019-11-29 03:00:00 10.9 12 Sudoeste 21 Sudoeste 0 -- -- 79
2019-11-29 02:00:00 10.6 3 Sudoeste 13 Sudoeste 0 -- -- 81
2019-11-29 01:00:00 11.5 10 Sudoeste 16 Sudoeste 0 -- -- 78
2019-11-29 00:00:00 12 4 Sur 14 Oeste 0 -- -- 77
2019-11-28 23:00:00 11.8 5 Sudoeste 13 Sudoeste 0 -- -- 78
2019-11-28 22:00:00 10.1 6 Norte 9 Sudoeste 0 -- -- 85
2019-11-28 21:00:00 11.6 8 Sudoeste 13 Sur 0 -- -- 79
2019-11-28 20:00:00 12.5 5 Sur 12 Sudoeste 0 -- -- 75
2019-11-28 19:00:00 13.3 3 Sudoeste 12 Sudoeste 0 -- -- 71
2019-11-28 18:00:00 14 7 Oeste 25 Oeste 0 -- -- 68
2019-11-28 17:00:00 14.5 16 Oeste 24 Oeste 0 -- -- 67
2019-11-28 16:00:00 15.8 13 Sudoeste 36 Sudoeste 0 -- -- 62
2019-11-28 15:00:00 17 16 Sudoeste 24 Sudoeste 0 -- -- 57
2019-11-28 14:00:00 16.2 12 Sudoeste 32 Sudoeste 0 -- -- 59
2019-11-28 13:00:00 15.9 15 Sudoeste 36 Noroeste 0 -- -- 58
2019-11-28 12:00:00 15.4 14 Oeste 31 Noroeste 0 -- -- 56
2019-11-28 11:00:00 13.1 4 Sur 10 Sur 0 -- -- 72
2019-11-28 10:00:00 9.5 2 Sudeste 6 Nordeste 0 -- -- 84
2019-11-28 09:00:00 5.8 5 Norte 12 Nordeste 0 -- -- 93
2019-11-28 08:00:00 4.7 3 Sudoeste 11 Norte 0 -- -- 94
2019-11-28 07:00:00 5.3 3 Sur 13 Nordeste 0 -- -- 93
2019-11-28 06:00:00 5.9 3 Sur 8 Noroeste 0 -- -- 91
2019-11-28 05:00:00 7.5 0 Calma 11 Sur 0 -- -- 85
2019-11-28 04:00:00 8.3 6 Sudoeste 11 Sudoeste 0 -- -- 83
2019-11-28 03:00:00 8.1 5 Sur 10 Sudeste 0 -- -- 83
2019-11-28 02:00:00 8.5 2 Sur 5 Sudoeste 0 -- -- 84
2019-11-28 01:00:00 9.3 3 Sudoeste 7 Sudoeste 0 -- -- 78
2019-11-28 00:00:00 10 0 Calma 7 Noroeste 0 -- -- 78
2019-11-27 23:00:00 11.8 5 Oeste 10 Oeste 0 -- -- 67
2019-11-27 22:00:00 12.4 2 Noroeste 14 Oeste 0 -- -- 66
2019-11-27 21:00:00 11.7 6 Sudoeste 8 Sudoeste 0 -- -- 72
2019-11-27 20:00:00 12.4 0 Calma 15 Oeste 0 -- -- 68
2019-11-27 19:00:00 12.5 3 Norte 14 Noroeste 0 -- -- 67
2019-11-27 18:00:00 12.9 3 Sudoeste 14 Oeste 0 -- -- 66
2019-11-27 17:00:00 13.9 3 Oeste 27 Sudoeste 0 -- -- 62
2019-11-27 16:00:00 15.2 8 Oeste 23 Oeste 0 -- -- 59
2019-11-27 15:00:00 14.8 8 Noroeste 24 Sudoeste 0 -- -- 64
2019-11-27 14:00:00 14.9 16 Sudoeste 32 Sudoeste 0 -- -- 62
2019-11-27 06:00:00 -- -- -- -- -- -- -- -- --
2019-11-27 05:00:00 10.9 7 Noroeste 20 Oeste 0 -- -- 97
2019-11-27 04:00:00 7.4 3 Sudoeste 12 Noroeste 0 -- -- 97
2019-11-27 03:00:00 7.7 3 Norte 5 Norte 0 -- -- 97
2019-11-27 02:00:00 7.8 2 Sur 8 Sudoeste 0 -- -- 96
2019-11-27 01:00:00 7.7 3 Norte 8 Sudoeste 0 -- -- 96
2019-11-27 00:00:00 7.6 3 Sudeste 10 Noroeste 0.2 -- -- 96
2019-11-26 23:00:00 7.5 4 Este 9 Noroeste 0 -- -- 93
2019-11-26 22:00:00 7.8 0 Calma 7 Norte 0 -- -- 92
2019-11-26 21:00:00 8.7 2 Sudoeste 9 Oeste 0 -- -- 89
2019-11-26 20:00:00 10 4 Noroeste 11 Oeste 0 -- -- 84
2019-11-26 19:00:00 12.4 4 Oeste 15 Noroeste 0 -- -- 74
2019-11-26 18:00:00 13.2 5 Sudoeste 11 Oeste 0 -- -- 72
2019-11-26 17:00:00 14.4 5 Sudoeste 14 Sudoeste 0 -- -- 68
2019-11-26 16:00:00 15.3 10 Sudoeste 15 Sudoeste 0 -- -- 67
2019-11-26 15:00:00 16.1 5 Sur 21 Sudoeste 0 -- -- 65
2019-11-26 14:00:00 15.2 9 Sudoeste 20 Sudoeste 0 -- -- 68
2019-11-26 13:00:00 13.7 12 Sudoeste 21 Sudoeste 0 -- -- 75
2019-11-26 12:00:00 11 6 Sudeste 8 Sudeste 0 -- -- 80
2019-11-26 11:00:00 7.4 4 Nordeste 8 Noroeste 0 -- -- 88
2019-11-26 10:00:00 4.9 2 Norte 6 Nordeste 0 -- -- 98
2019-11-26 09:00:00 2.9 5 Norte 11 Norte 0 -- -- 99
2019-11-26 08:00:00 2.4 3 Norte 9 Noroeste 0 -- -- 99
2019-11-26 07:00:00 0.9 2 Norte 5 Noroeste 0 -- -- 99
2019-11-26 06:00:00 1.3 5 Noroeste 10 Noroeste 0 -- -- 98
2019-11-26 05:00:00 1.7 4 Norte 8 Norte 0 -- -- 99
2019-11-26 04:00:00 2.4 0 Calma 5 Norte 0 -- -- 99
2019-11-26 03:00:00 2.7 2 Norte 6 Norte 0 -- -- 99
2019-11-26 02:00:00 2.8 3 Norte 7 Norte 0 -- -- 98
2019-11-26 01:00:00 2.5 5 Norte 6 Norte 0 -- -- 97
2019-11-26 00:00:00 3.1 2 Noroeste 5 Norte 0 -- -- 97
2019-11-25 23:00:00 3.5 3 Norte 8 Noroeste 0 -- -- 96
2019-11-25 22:00:00 4.5 4 Norte 5 Norte 0 -- -- 95
2019-11-25 21:00:00 5.7 5 Norte 8 Norte 0 -- -- 94
2019-11-25 20:00:00 6.6 3 Norte 8 Noroeste 0 -- -- 93
2019-11-25 19:00:00 7.7 7 Norte 9 Norte 0 -- -- 90
2019-11-25 18:00:00 10.4 6 Noroeste 8 Noroeste 0 -- -- 81
2019-11-25 17:00:00 12.3 5 Sudoeste 9 Sudoeste 0 -- -- 72
2019-11-25 16:00:00 14.3 5 Sur 8 Este 0 -- -- 65
2019-11-25 15:00:00 13.7 5 Este 9 Sudeste 0 -- -- 65
2019-11-25 14:00:00 13.1 3 Sudeste 7 Sudeste 0 -- -- 65
2019-11-25 13:00:00 11.7 3 Este 8 Este 0 -- -- 68
2019-11-25 12:00:00 9.7 3 Este 10 Nordeste 0 -- -- 75
2019-11-25 11:00:00 7.3 5 Norte 13 Nordeste 0 -- -- 85
2019-11-25 10:00:00 4.6 8 Norte 12 Norte 0 -- -- 99
2019-11-25 09:00:00 2.3 7 Noroeste 9 Norte 0 -- -- 99
2019-11-25 08:00:00 1.1 4 Oeste 9 Noroeste 0 -- -- 99
2019-11-25 07:00:00 1.4 4 Noroeste 5 Noroeste 0 -- -- 99
2019-11-25 06:00:00 1.5 5 Noroeste 8 Norte 0 -- -- 98
2019-11-25 05:00:00 2.6 4 Norte 8 Noroeste 0 -- -- 98
2019-11-25 04:00:00 2.9 7 Noroeste 12 Noroeste 0 -- -- 98
2019-11-25 03:00:00 2.5 4 Norte 9 Norte 0 -- -- 97
2019-11-25 02:00:00 3.3 4 Noroeste 10 Noroeste 0 -- -- 97
2019-11-25 01:00:00 3.2 4 Norte 13 Noroeste 0 -- -- 96
2019-11-25 00:00:00 3.3 9 Noroeste 12 Noroeste 0 -- -- 97
2019-11-24 23:00:00 4.2 3 Noroeste 7 Norte 0 -- -- 94
2019-11-24 22:00:00 4.8 2 Oeste 6 Norte 0 -- -- 91
2019-11-24 21:00:00 6.5 5 Norte 18 Oeste 0 -- -- 86
2019-11-24 20:00:00 8.2 3 Sudoeste 9 Oeste 0 -- -- 83
2019-11-24 19:00:00 9 4 Sudeste 9 Noroeste 0 -- -- 80
2019-11-24 18:00:00 10.3 5 Sudoeste 15 Sudoeste 0 -- -- 75
2019-11-24 17:00:00 12.2 9 Sudoeste 17 Sudoeste 0 -- -- 68
2019-11-24 16:00:00 14 6 Noroeste 23 Sudoeste 0 -- -- 59
2019-11-24 15:00:00 14 14 Sudoeste 27 Sudoeste 0 -- -- 58
2019-11-24 14:00:00 13.2 8 Sur 15 Sur 0 -- -- 63
2019-11-24 13:00:00 11.5 6 Sudeste 10 Sudoeste 0 -- -- 67
2019-11-24 12:00:00 9.5 5 Sudeste 9 Sudeste 0 -- -- 71
2019-11-24 11:00:00 6.3 3 Norte 8 Norte 0 -- -- 86
2019-11-24 10:00:00 3 3 Nordeste 8 Nordeste 0 -- -- 97
2019-11-24 09:00:00 0.9 4 Norte 10 Norte 0 -- -- 98
2019-11-24 08:00:00 0.8 8 Norte 11 Noroeste 0 -- -- 98
2019-11-24 07:00:00 1.5 3 Norte 11 Norte 0 -- -- 95
2019-11-24 06:00:00 2.4 6 Norte 12 Oeste 0 -- -- 93
2019-11-24 05:00:00 4.1 2 Sur 12 Oeste 0 -- -- 90
2019-11-24 04:00:00 5.1 3 Sudoeste 6 Noroeste 0 -- -- 89
2019-11-24 03:00:00 6.4 4 Norte 16 Oeste 0 -- -- 82
2019-11-24 02:00:00 7.1 8 Oeste 15 Sur 0 -- -- 76
2019-11-24 01:00:00 7.5 7 Sudoeste 14 Oeste 0 -- -- 76
2019-11-24 00:00:00 7.5 5 Sudoeste 10 Noroeste 0 -- -- 78
2019-11-23 23:00:00 7.7 3 Oeste 12 Oeste 0 -- -- 78
2019-11-23 22:00:00 8 3 Sur 10 Oeste 0 -- -- 79
2019-11-23 21:00:00 8.7 7 Oeste 19 Oeste 0 -- -- 78
2019-11-23 20:00:00 8.9 7 Sur 17 Sudoeste 0 -- -- 79
2019-11-23 19:00:00 9.3 8 Sur 17 Sur 0 -- -- 79
2019-11-23 18:00:00 9.6 9 Oeste 22 Noroeste 0 -- -- 75
2019-11-23 17:00:00 10.2 11 Noroeste 36 Noroeste 0 -- -- 74
2019-11-23 16:00:00 10.8 13 Noroeste 34 Oeste 0 -- -- 74
2019-11-23 15:00:00 10.9 9 Noroeste 26 Oeste 0 -- -- 78
2019-11-23 14:00:00 11.7 7 Oeste 30 Oeste 0 -- -- 76
2019-11-23 13:00:00 11.3 12 Sudoeste 24 Sudoeste 0 -- -- 78
2019-11-23 12:00:00 10.8 10 Sudoeste 23 Sudoeste 0 -- -- 80
2019-11-23 11:00:00 9.9 8 Oeste 18 Oeste 0 -- -- 87
2019-11-23 10:00:00 9.4 3 Sudeste 6 Norte 0 -- -- 95
2019-11-23 09:00:00 6.6 4 Sur 8 Norte 0 -- -- 100
2019-11-23 08:00:00 6 4 Sur 9 Oeste 0 -- -- 98
2019-11-23 07:00:00 6.3 3 Sur 9 Noroeste 0 -- -- 97
2019-11-23 06:00:00 7.6 6 Sudoeste 13 Sudoeste 0 -- -- 96
2019-11-23 05:00:00 8.2 5 Oeste 9 Sudoeste 0 -- -- 96
2019-11-23 04:00:00 9.3 2 Nordeste 15 Sudoeste 0 -- -- 95
2019-11-23 03:00:00 10.1 6 Sudoeste 15 Sudoeste 0 -- -- 92
2019-11-23 02:00:00 11.9 15 Sudoeste 34 Sudoeste 0 -- -- 99
2019-11-23 01:00:00 11.6 14 Sur 22 Sudoeste 1.4 -- -- 100
2019-11-23 00:00:00 10.7 5 Sudoeste 10 Sudeste 5.8 -- -- 100
2019-11-22 23:00:00 9.3 4 Norte 9 Sudoeste 1.2 -- -- 100
2019-11-22 22:00:00 9.2 4 Noroeste 12 Norte 1 -- -- 99
2019-11-22 21:00:00 9 4 Norte 12 Norte 3.6 -- -- 99
2019-11-22 20:00:00 8.9 5 Noroeste 9 Noroeste 2 -- -- 98
2019-11-22 19:00:00 9 6 Norte 8 Noroeste 0.8 -- -- 97
2019-11-22 18:00:00 9.6 0 Calma 6 Norte 0 -- -- 94
2019-11-22 17:00:00 9.9 3 Norte 5 Noroeste 0 -- -- 91
2019-11-22 16:00:00 10.2 2 Este 5 Norte 0 -- -- 89
2019-11-22 15:00:00 10 3 Norte 8 Norte 0 -- -- 90
2019-11-22 14:00:00 9.3 2 Norte 7 Noroeste 0 -- -- 93
2019-11-22 13:00:00 7.1 3 Noroeste 5 Noroeste 0 -- -- 97
2019-11-22 12:00:00 5.3 2 Nordeste 4 Este 0 -- -- 99
2019-11-22 11:00:00 4 0 Calma 4 Nordeste 0.8 -- -- 98
2019-11-22 10:00:00 3.3 3 Norte 8 Noroeste 0.2 -- -- 98
2019-11-22 09:00:00 2.4 3 Norte 8 Norte 0.2 -- -- 97
2019-11-22 08:00:00 1.1 2 Norte 6 Sudoeste 0 -- -- 98
2019-11-22 07:00:00 0.4 3 Noroeste 11 Norte 0 -- -- 98
2019-11-22 06:00:00 0.2 5 Noroeste 8 Noroeste 0 -- -- 99
2019-11-22 05:00:00 -0.3 4 Noroeste 9 Norte 0 -- -- 97
2019-11-22 04:00:00 0 2 Oeste 10 Norte 0 -- -- 97
2019-11-22 03:00:00 0.7 6 Norte 9 Norte 0 -- -- 98
2019-11-22 02:00:00 -0.3 5 Noroeste 10 Noroeste 0 -- -- 95
2019-11-22 01:00:00 0.7 2 Noroeste 6 Norte 0 -- -- 96
2019-11-22 00:00:00 1.8 3 Oeste 8 Norte 0 -- -- 95
2019-11-21 23:00:00 2.3 2 Norte 8 Norte 0 -- -- 94
2019-11-21 22:00:00 3.2 2 Sur 7 Norte 0 -- -- 90
2019-11-21 21:00:00 3.9 5 Norte 6 Norte 0 -- -- 86
2019-11-21 20:00:00 6.2 3 Sudoeste 8 Sudoeste 0 -- -- 82
2019-11-21 19:00:00 7.7 6 Sudoeste 9 Sudoeste 0 -- -- 76
2019-11-21 18:00:00 9.1 6 Sudoeste 19 Sudoeste 0 -- -- 70
2019-11-21 17:00:00 10.7 12 Sudoeste 20 Sudoeste 0 -- -- 66
2019-11-21 16:00:00 11.8 8 Sudoeste 22 Sudoeste 0 -- -- 63
2019-11-21 15:00:00 11.3 7 Oeste 30 Sudoeste 0 -- -- 64
2019-11-21 14:00:00 11.7 11 Sudoeste 28 Sudoeste 0 -- -- 61
2019-11-21 13:00:00 10.6 11 Sur 21 Sur 0 -- -- 66
2019-11-21 12:00:00 9.2 8 Sur 13 Sur 0 -- -- 71
2019-11-21 11:00:00 6.2 3 Sudeste 6 Sudeste 0 -- -- 79
2019-11-21 10:00:00 3.4 3 Este 5 Este 0 -- -- 89
2019-11-21 09:00:00 -0.1 4 Norte 7 Noroeste 0 -- -- 97
2019-11-21 08:00:00 -- -- -- -- -- -- -- -- --
2019-11-21 07:00:00 -- -- -- -- -- -- -- -- --
2019-11-21 06:00:00 -- -- -- -- -- -- -- -- --
2019-11-21 05:00:00 -- -- -- -- -- -- -- -- --
2019-11-21 04:00:00 -- -- -- -- -- -- -- -- --
2019-11-21 03:00:00 -- -- -- -- -- -- -- -- --
2019-11-21 02:00:00 -- -- -- -- -- -- -- -- --
2019-11-21 01:00:00 -- -- -- -- -- -- -- -- --
2019-11-21 00:00:00 -- -- -- -- -- -- -- -- --
2019-11-20 23:00:00 -- -- -- -- -- -- -- -- --
2019-11-20 22:00:00 -- -- -- -- -- -- -- -- --
2019-11-20 21:00:00 -- -- -- -- -- -- -- -- --
2019-11-20 20:00:00 -- -- -- -- -- -- -- -- --
2019-11-20 19:00:00 6.6 2 Norte 13 Sur 0 -- -- 81
2019-11-20 18:00:00 8.5 12 Sur 19 Sur 0 -- -- 76
2019-11-20 17:00:00 9.1 10 Sudoeste 19 Sur 0 -- -- 69
2019-11-20 16:00:00 10.1 13 Sur 19 Sur 0 -- -- 61
2019-11-20 15:00:00 11 12 Sur 18 Sudeste 0 -- -- 58
2019-11-20 14:00:00 10.8 9 Sur 14 Sudeste 0 -- -- 60
2019-11-20 13:00:00 8.1 4 Sudeste 9 Sur 0 -- -- 65
2019-11-20 12:00:00 4.5 2 Norte 5 Nordeste 0 -- -- 75
2019-11-20 11:00:00 1.5 2 Nordeste 5 Sudeste 0 -- -- 88
2019-11-20 10:00:00 -1.5 0 Calma 4 Norte 0 -- -- 98
2019-11-20 09:00:00 -4 2 Norte 8 Norte 0 -- -- 95
2019-11-20 08:00:00 -4.4 6 Norte 8 Norte 0 -- -- 96
2019-11-20 07:00:00 -4.5 2 Sur 6 Noroeste 0 -- -- 95
2019-11-20 06:00:00 -3.8 3 Noroeste 8 Noroeste 0 -- -- 96
2019-11-20 05:00:00 -4.1 5 Norte 7 Norte 0 -- -- 96
2019-11-20 04:00:00 -3.1 4 Norte 8 Norte 0 -- -- 96
2019-11-20 03:00:00 -3 0 Calma 5 Norte 0 -- -- 96
2019-11-20 02:00:00 -2.9 3 Norte 9 Noroeste 0 -- -- 95
2019-11-20 01:00:00 -2.4 3 Norte 8 Noroeste 0 -- -- 94
2019-11-20 00:00:00 -1.8 2 Sudeste 7 Norte 0 -- -- 93
2019-11-19 23:00:00 -1.2 5 Noroeste 7 Noroeste 0 -- -- 95
2019-11-19 22:00:00 -0.5 3 Sudoeste 8 Norte 0 -- -- 93
2019-11-19 21:00:00 1.3 0 Calma 6 Norte 0 -- -- 87
2019-11-19 20:00:00 2.4 6 Norte 9 Norte 0 -- -- 84
2019-11-19 19:00:00 3.7 5 Norte 7 Norte 0 -- -- 78
2019-11-19 18:00:00 7.3 4 Oeste 10 Oeste 0 -- -- 63
2019-11-19 17:00:00 9.1 4 Sudoeste 9 Sur 0 -- -- 56
2019-11-19 16:00:00 10.5 3 Sudeste 12 Sur 0 -- -- 54
2019-11-19 15:00:00 10.5 5 Sur 14 Sur 0 -- -- 54
2019-11-19 14:00:00 9.3 7 Sur 16 Sur 0 -- -- 60
2019-11-19 13:00:00 8 10 Sur 17 Sur 0 -- -- 65
2019-11-19 12:00:00 6.5 3 Este 8 Norte 0 -- -- 71
2019-11-19 11:00:00 3.7 3 Sudeste 7 Norte 0 -- -- 81
2019-11-19 10:00:00 0.4 3 Norte 6 Norte 0 -- -- 91
2019-11-19 09:00:00 -1.9 3 Norte 13 Oeste 0 -- -- 95
2019-11-19 08:00:00 -2.7 8 Noroeste 15 Norte 0 -- -- 95
2019-11-19 07:00:00 -3.7 4 Norte 9 Noroeste 0 -- -- 95
2019-11-19 06:00:00 -3 4 Norte 10 Norte 0 -- -- 96
2019-11-19 05:00:00 -3 4 Norte 10 Noroeste 0 -- -- 96
2019-11-19 04:00:00 -1.6 4 Noroeste 11 Norte 0 -- -- 97
2019-11-19 03:00:00 -2 4 Nordeste 11 Norte 0 -- -- 96
2019-11-19 02:00:00 -1.6 2 Oeste 7 Sudoeste 0 -- -- 96
2019-11-19 01:00:00 -0.5 0 Calma 8 Norte 0 -- -- 95
2019-11-19 00:00:00 0.6 5 Norte 9 Noroeste 0 -- -- 97
2019-11-18 23:00:00 0.7 6 Norte 13 Norte 0 -- -- 93
2019-11-18 22:00:00 1.1 8 Norte 10 Noroeste 0 -- -- 93
2019-11-18 21:00:00 3.1 7 Norte 12 Noroeste 0 -- -- 92
2019-11-18 20:00:00 4.7 4 Noroeste 11 Oeste 0 -- -- 85
2019-11-18 19:00:00 6.8 4 Oeste 13 Sudoeste 0 -- -- 80
2019-11-18 18:00:00 7.4 9 Sur 19 Noroeste 0 -- -- 78
2019-11-18 17:00:00 8.3 15 Noroeste 29 Oeste 0 -- -- 74
2019-11-18 16:00:00 11.3 6 Oeste 29 Sudoeste 0 -- -- 65
2019-11-18 15:00:00 12.7 14 Sudoeste 26 Sudoeste 0 -- -- 56
2019-11-18 14:00:00 12.9 6 Oeste 16 Sudoeste 0 -- -- 55
2019-11-18 13:00:00 12 5 Sudoeste 12 Nordeste 0 -- -- 59
2019-11-18 12:00:00 10.6 5 Sur 9 Sudeste 0 -- -- 65
2019-11-18 11:00:00 7.6 3 Sur 7 Sudeste 0 -- -- 73
2019-11-18 10:00:00 4.5 3 Nordeste 6 Norte 0 -- -- 84
2019-11-18 09:00:00 1.4 3 Norte 6 Norte 0 -- -- 96
2019-11-18 08:00:00 0 4 Noroeste 9 Norte 0 -- -- 97
2019-11-18 07:00:00 -0.1 3 Sur 10 Norte 0 -- -- 95
2019-11-18 06:00:00 1.1 6 Norte 10 Noroeste 0 -- -- 95
2019-11-18 05:00:00 1.5 0 Calma 12 Norte 0 -- -- 95
2019-11-18 04:00:00 2.4 10 Norte 13 Norte 0 -- -- 94
2019-11-18 03:00:00 3.9 3 Norte 7 Norte 0 -- -- 93
2019-11-18 02:00:00 4.6 0 Calma 8 Noroeste 0 -- -- 93
2019-11-18 01:00:00 5.3 4 Noroeste 6 Noroeste 0 -- -- 91
2019-11-18 00:00:00 5.1 5 Noroeste 13 Noroeste 0 -- -- 91
2019-11-17 23:00:00 4.9 3 Oeste 10 Noroeste 0 -- -- 90
2019-11-17 22:00:00 5.6 6 Norte 8 Noroeste 0 -- -- 89
2019-11-17 21:00:00 5.9 5 Norte 6 Noroeste 0 -- -- 88
2019-11-17 20:00:00 6.2 3 Norte 6 Nordeste 0 -- -- 87
2019-11-17 19:00:00 7 2 Sudoeste 7 Noroeste 0 -- -- 81
2019-11-17 18:00:00 8.4 0 Calma 10 Sudoeste 0 -- -- 75
2019-11-17 17:00:00 9.4 4 Sur 18 Sudoeste 0 -- -- 67
2019-11-17 16:00:00 10.5 4 Oeste 19 Oeste 0 -- -- 62
2019-11-17 15:00:00 10 4 Nordeste 19 Sudoeste 0 -- -- 65
2019-11-17 14:00:00 9 7 Noroeste 14 Oeste 0 -- -- 66
2019-11-17 13:00:00 7.8 2 Sudeste 11 Sudeste 0 -- -- 73
2019-11-17 12:00:00 6.4 4 Nordeste 11 Norte 0 -- -- 79
2019-11-17 11:00:00 2.7 3 Nordeste 12 Norte 0 -- -- 98
2019-11-17 10:00:00 0.2 9 Norte 13 Norte 0 -- -- 99
2019-11-17 09:00:00 -0.7 6 Noroeste 9 Noroeste 0 -- -- 99
2019-11-17 08:00:00 -1.6 4 Norte 10 Noroeste 0 -- -- 99
2019-11-17 07:00:00 -2.9 7 Norte 10 Norte 0 -- -- 98
2019-11-17 06:00:00 -3.5 4 Norte 8 Nordeste 0 -- -- 96
2019-11-17 05:00:00 -2.9 5 Norte 10 Noroeste 0 -- -- 96
2019-11-17 04:00:00 -2.6 4 Norte 9 Norte 0 -- -- 96
2019-11-17 03:00:00 -2.7 4 Norte 10 Noroeste 0 -- -- 96
2019-11-17 02:00:00 -1.6 6 Noroeste 10 Noroeste 0 -- -- 97
2019-11-17 01:00:00 -1.6 3 Norte 8 Norte 0 -- -- 95
2019-11-17 00:00:00 -0.4 5 Noroeste 8 Noroeste 0 -- -- 96
2019-11-16 23:00:00 -0.6 6 Norte 13 Noroeste 0 -- -- 93
2019-11-16 22:00:00 0.8 4 Noroeste 15 Norte 0 -- -- 93
2019-11-16 21:00:00 1.5 6 Noroeste 9 Noroeste 0 -- -- 93
2019-11-16 20:00:00 3.2 2 Oeste 19 Norte 0 -- -- 86
2019-11-16 19:00:00 3.5 5 Este 10 Este 0 -- -- 86
2019-11-16 18:00:00 4 4 Sur 20 Sudoeste 0 -- -- 82
2019-11-16 17:00:00 5.2 13 Sudoeste 23 Sudoeste 0 -- -- 74
2019-11-16 16:00:00 6.7 16 Sudoeste 27 Sudoeste 0 -- -- 70
2019-11-16 15:00:00 8.4 10 Oeste 28 Oeste 0 -- -- 64
2019-11-16 14:00:00 9.3 9 Sudoeste 21 Sudoeste 0 -- -- 61
2019-11-16 13:00:00 9 10 Sudoeste 21 Sudoeste 0 -- -- 67
2019-11-16 12:00:00 6.6 5 Sudeste 10 Sudeste 0 -- -- 74
2019-11-16 11:00:00 4.7 4 Nordeste 8 Norte 0 -- -- 82
2019-11-16 10:00:00 1.9 3 Norte 10 Norte 0 -- -- 90
2019-11-16 09:00:00 0.7 3 Este 13 Noroeste 0 -- -- 98
2019-11-16 08:00:00 -0.4 2 Norte 6 Norte 0 -- -- 98
2019-11-16 07:00:00 -1.7 0 Calma 13 Noroeste 0 -- -- 97
2019-11-16 06:00:00 -1 4 Noroeste 10 Noroeste 0 -- -- 97
2019-11-16 05:00:00 -0.7 7 Noroeste 10 Noroeste 0 -- -- 98
2019-11-16 04:00:00 -0.9 4 Norte 6 Norte 0 -- -- 97
2019-11-16 03:00:00 -0.8 2 Sur 10 Norte 0 -- -- 97
2019-11-16 02:00:00 -0.8 7 Norte 12 Noroeste 0 -- -- 97
2019-11-16 01:00:00 -0.2 3 Nordeste 12 Noroeste 0 -- -- 95
2019-11-16 00:00:00 0 6 Norte 13 Norte 0 -- -- 96
2019-11-15 23:00:00 1.3 6 Norte 13 Norte 0 -- -- 95
2019-11-15 22:00:00 2.2 6 Oeste 9 Sudoeste 0 -- -- 89
2019-11-15 21:00:00 3.3 3 Este 8 Sudoeste 0 -- -- 89
2019-11-15 20:00:00 4.9 3 Sudoeste 10 Sudoeste 0 -- -- 83
2019-11-15 19:00:00 5.9 5 Sudoeste 24 Sudoeste 0 -- -- 79
2019-11-15 18:00:00 6.1 10 Sudoeste 22 Noroeste 0 -- -- 77
2019-11-15 17:00:00 6.4 9 Noroeste 25 Oeste 0 -- -- 76
2019-11-15 16:00:00 7.9 11 Sudoeste 27 Sudoeste 0 -- -- 69
2019-11-15 15:00:00 8.7 11 Sudoeste 23 Sudoeste 0 -- -- 65
2019-11-15 14:00:00 7.7 10 Sudoeste 24 Sudoeste 0 -- -- 68
2019-11-15 13:00:00 6.5 14 Sudoeste 28 Sudoeste 0 -- -- 78
2019-11-15 12:00:00 6.1 5 Oeste 13 Noroeste 0 -- -- 84
2019-11-15 11:00:00 3.1 3 Este 6 Este 0 -- -- 95
2019-11-15 10:00:00 0.2 2 Nordeste 7 Norte 0 -- -- 100
2019-11-15 09:00:00 -1.8 2 Norte 9 Noroeste 0 -- -- 99
2019-11-15 08:00:00 -2 2 Nordeste 4 Noroeste 0 -- -- 98
2019-11-15 07:00:00 -1.9 5 Noroeste 8 Norte 0 -- -- 98
2019-11-15 06:00:00 -1.6 6 Norte 8 Noroeste 0 -- -- 99
2019-11-15 05:00:00 -1.3 3 Oeste 13 Norte 0 -- -- 99
2019-11-15 04:00:00 -1.6 0 Calma 9 Norte 0 -- -- 99
2019-11-15 03:00:00 -1.4 3 Nordeste 7 Noroeste 0 -- -- 97
2019-11-15 02:00:00 -0.8 3 Norte 11 Noroeste 0 -- -- 97
2019-11-15 01:00:00 -0.7 6 Norte 9 Norte 0 -- -- 97
2019-11-15 00:00:00 -0.3 3 Noroeste 10 Noroeste 0 -- -- 96
2019-11-14 23:00:00 1.1 2 Oeste 10 Norte 0 -- -- 96
2019-11-14 22:00:00 2 5 Norte 10 Noroeste 0 -- -- 91
2019-11-14 21:00:00 4.2 4 Sudoeste 10 Sudoeste 0 -- -- 87
2019-11-14 20:00:00 5.7 4 Oeste 20 Sudoeste 0 -- -- 80
2019-11-14 19:00:00 5.6 8 Sudoeste 12 Sudoeste 0 -- -- 89
2019-11-14 18:00:00 6 6 Sudoeste 15 Sudoeste 0 -- -- 87
2019-11-14 17:00:00 6.5 5 Sur 22 Sudoeste 0 -- -- 85
2019-11-14 16:00:00 6.6 10 Sudoeste 16 Sudoeste 0 -- -- 88
2019-11-14 15:00:00 6.6 3 Nordeste 22 Sudoeste 0 -- -- 93
2019-11-14 14:00:00 6.7 6 Noroeste 35 Sudoeste 0 -- -- 95
2019-11-14 13:00:00 8 6 Sudoeste 12 Sudoeste 0.2 -- -- 99
2019-11-14 12:00:00 7 8 Sur 13 Sur 0.6 -- -- 98
2019-11-14 11:00:00 6.5 4 Sudeste 6 Norte 0.4 -- -- 98
2019-11-14 10:00:00 5.7 3 Sur 12 Sudoeste 0.4 -- -- 98
2019-11-14 09:00:00 5.1 5 Sudoeste 10 Norte 2.2 -- -- 98
2019-11-14 08:00:00 4.4 5 Norte 9 Noroeste 0 -- -- 96
2019-11-14 07:00:00 4.8 6 Noroeste 10 Noroeste 0 -- -- 98
2019-11-14 06:00:00 4.3 6 Norte 10 Norte 0 -- -- 97
2019-11-14 05:00:00 4.1 3 Norte 5 Norte 0 -- -- 98
2019-11-14 04:00:00 3.8 3 Noroeste 6 Norte 0 -- -- 97
2019-11-14 03:00:00 3.4 2 Noroeste 9 Norte 0 -- -- 97
2019-11-14 02:00:00 3.2 0 Calma 4 Sur 0 -- -- 96
2019-11-14 01:00:00 3.9 2 Noroeste 5 Noroeste 0 -- -- 95
2019-11-14 00:00:00 4.7 2 Oeste 10 Noroeste 0 -- -- 94
2019-11-13 23:00:00 5.5 5 Norte 9 Noroeste 0 -- -- 92
2019-11-13 22:00:00 5.8 4 Sudoeste 8 Noroeste 0 -- -- 91
2019-11-13 21:00:00 6.5 3 Norte 9 Sudoeste 0 -- -- 90
2019-11-13 20:00:00 7.7 2 Oeste 9 Sudoeste 0 -- -- 85
2019-11-13 19:00:00 8.7 4 Sur 14 Sudoeste 0 -- -- 82
2019-11-13 18:00:00 9.8 9 Sudoeste 18 Sudoeste 0 -- -- 77
2019-11-13 17:00:00 11.4 9 Sudoeste 18 Sudoeste 0 -- -- 69
2019-11-13 16:00:00 12.6 11 Sur 20 Sur 0 -- -- 66
2019-11-13 15:00:00 12.4 9 Sur 18 Sur 0 -- -- 68
2019-11-13 14:00:00 9.9 5 Sur 8 Sudeste 0 -- -- 76
2019-11-13 13:00:00 7.7 4 Sur 10 Sur 0 -- -- 82
2019-11-13 12:00:00 6.5 8 Sur 12 Sur 0 -- -- 84
2019-11-13 11:00:00 5.4 3 Sudeste 6 Sur 0 -- -- 85
2019-11-13 10:00:00 3.8 2 Sur 4 Sudeste 0 -- -- 92
2019-11-13 09:00:00 2.7 2 Norte 4 Norte 0 -- -- 95
2019-11-13 08:00:00 1.3 0 Calma 11 Noroeste 0 -- -- 95
2019-11-13 07:00:00 1.6 5 Norte 8 Norte 0 -- -- 94
2019-11-13 06:00:00 0.9 4 Norte 7 Noroeste 0 -- -- 96
2019-11-13 05:00:00 1.5 5 Norte 9 Norte 0 -- -- 96
2019-11-13 04:00:00 1.9 4 Norte 13 Norte 0 -- -- 90
2019-11-13 03:00:00 1.9 9 Norte 12 Nordeste 0 -- -- 94
2019-11-13 02:00:00 2.9 4 Norte 10 Norte 0 -- -- 92
2019-11-13 01:00:00 5 0 Calma 9 Norte 0 -- -- 89
2019-11-13 00:00:00 6.7 2 Sudoeste 9 Noroeste 0 -- -- 81
2019-11-12 23:00:00 7.3 2 Norte 6 Oeste 0 -- -- 81
2019-11-12 22:00:00 8.3 2 Este 15 Norte 0 -- -- 76
2019-11-12 21:00:00 9.4 10 Noroeste 21 Noroeste 0 -- -- 72
2019-11-12 20:00:00 10.4 5 Sudeste 28 Noroeste 0 -- -- 68
2019-11-12 19:00:00 12 9 Noroeste 27 Noroeste 0 -- -- 62
2019-11-12 18:00:00 12.9 8 Noroeste 31 Noroeste 0 -- -- 59
2019-11-12 17:00:00 14 7 Sudoeste 23 Noroeste 0 -- -- 54
2019-11-12 16:00:00 15.1 10 Oeste 30 Oeste 0 -- -- 48
2019-11-12 15:00:00 15 9 Oeste 29 Noroeste 0 -- -- 46
2019-11-12 14:00:00 14.8 13 Noroeste 30 Oeste 0 -- -- 42
2019-11-12 13:00:00 14.7 21 Sudoeste 33 Sudoeste 0 -- -- 41
2019-11-12 12:00:00 13.5 11 Noroeste 28 Noroeste 0 -- -- 46
2019-11-12 11:00:00 11.5 8 Sur 14 Sudoeste 0 -- -- 61
2019-11-12 10:00:00 6.2 7 Sur 18 Noroeste 0 -- -- 80
2019-11-12 09:00:00 2.5 3 Norte 17 Noroeste 0 -- -- 94
2019-11-12 08:00:00 1.1 3 Nordeste 12 Oeste 0 -- -- 97
2019-11-12 07:00:00 0.6 6 Noroeste 9 Noroeste 0 -- -- 98
2019-11-12 06:00:00 0 5 Nordeste 13 Noroeste 0 -- -- 97
2019-11-12 05:00:00 -0.4 4 Nordeste 12 Noroeste 0 -- -- 97
2019-11-12 04:00:00 -0.5 3 Norte 9 Norte 0 -- -- 96
2019-11-12 03:00:00 0.4 2 Noroeste 9 Norte 0 -- -- 95
2019-11-12 02:00:00 1 5 Norte 10 Noroeste 0 -- -- 95
2019-11-12 01:00:00 2.1 2 Noroeste 11 Norte 0 -- -- 93
2019-11-12 00:00:00 2.6 6 Norte 10 Nordeste 0 -- -- 90
2019-11-11 23:00:00 3.5 2 Noroeste 12 Noroeste 0 -- -- 89
2019-11-11 22:00:00 4.6 5 Norte 11 Noroeste 0 -- -- 85
2019-11-11 21:00:00 5.3 5 Noroeste 12 Norte 0 -- -- 82
2019-11-11 20:00:00 6.1 5 Norte 9 Noroeste 0 -- -- 79
2019-11-11 19:00:00 7.7 0 Calma 6 Oeste 0 -- -- 72
2019-11-11 18:00:00 8.6 4 Oeste 17 Noroeste 0 -- -- 66
2019-11-11 17:00:00 10 6 Oeste 14 Sudoeste 0 -- -- 57
2019-11-11 16:00:00 11.4 9 Sudoeste 18 Sudoeste 0 -- -- 55
2019-11-11 15:00:00 12.4 6 Sudoeste 17 Sudoeste 0 -- -- 52
2019-11-11 14:00:00 10.9 5 Sur 9 Sudeste 0 -- -- 60
2019-11-11 13:00:00 9.4 4 Este 10 Este 0 -- -- 65
2019-11-11 12:00:00 7.4 4 Sur 9 Este 0 -- -- 71
2019-11-11 11:00:00 3.6 4 Norte 9 Noroeste 0 -- -- 90
2019-11-11 10:00:00 1.5 3 Norte 6 Norte 0 -- -- 94
2019-11-11 09:00:00 -0.1 2 Norte 9 Noroeste 0 -- -- 97
2019-11-11 08:00:00 -0.9 4 Noroeste 8 Noroeste 0 -- -- 97
2019-11-11 07:00:00 -0.8 6 Norte 13 Noroeste 0 -- -- 96
2019-11-11 06:00:00 -0.8 4 Noroeste 7 Noroeste 0 -- -- 97
2019-11-11 05:00:00 -1.5 6 Norte 14 Noroeste 0 -- -- 96
2019-11-11 04:00:00 -1 3 Noroeste 9 Norte 0 -- -- 97
2019-11-11 03:00:00 -0.5 4 Norte 9 Norte 0 -- -- 96
2019-11-11 02:00:00 -0.1 6 Norte 8 Noroeste 0 -- -- 95
2019-11-11 01:00:00 1.1 5 Norte 9 Noroeste 0 -- -- 93
2019-11-11 00:00:00 2.3 2 Sur 8 Sudoeste 0 -- -- 90
2019-11-10 23:00:00 3.4 2 Oeste 7 Sudoeste 0 -- -- 88
2019-11-10 22:00:00 3.8 3 Norte 6 Norte 0 -- -- 87
2019-11-10 21:00:00 6.2 2 Norte 12 Oeste 0 -- -- 77
2019-11-10 20:00:00 7.1 0 Calma 14 Noroeste 0 -- -- 75
2019-11-10 19:00:00 8 5 Nordeste 27 Oeste 0 -- -- 73
2019-11-10 18:00:00 9.5 16 Noroeste 36 Noroeste 0 -- -- 68
2019-11-10 17:00:00 11.7 5 Noroeste 21 Sudoeste 0 -- -- 59
2019-11-10 16:00:00 13.4 6 Oeste 22 Oeste 0 -- -- 51
2019-11-10 15:00:00 13.3 14 Noroeste 27 Noroeste 0 -- -- 47
2019-11-10 14:00:00 13.7 7 Sudoeste 21 Sudoeste 0 -- -- 47
2019-11-10 13:00:00 12.3 8 Sudoeste 22 Sudoeste 0 -- -- 57
2019-11-10 12:00:00 10.4 6 Sudeste 13 Sudeste 0 -- -- 68
2019-11-10 11:00:00 8.6 4 Sur 8 Sur 0 -- -- 77
2019-11-10 10:00:00 7 0 Calma 10 Sudoeste 0 -- -- 85
2019-11-10 09:00:00 6.2 2 Nordeste 11 Sudoeste 0 -- -- 86
2019-11-10 08:00:00 6.3 5 Sudoeste 10 Sur 0 -- -- 89
2019-11-10 07:00:00 6.6 5 Sudoeste 13 Norte 0 -- -- 93
2019-11-10 06:00:00 6.9 3 Nordeste 9 Oeste 0 -- -- 92
2019-11-10 05:00:00 7.4 5 Norte 21 Noroeste 0 -- -- 88
2019-11-10 04:00:00 7.4 5 Este 27 Noroeste 0 -- -- 89
2019-11-10 03:00:00 7.2 10 Nordeste 39 Norte 0.8 -- -- 91
2019-11-10 02:00:00 7.4 10 Noroeste 16 Norte 0 -- -- 88
2019-11-10 01:00:00 8.4 4 Nordeste 13 Oeste 0 -- -- 82
2019-11-10 00:00:00 8.6 2 Nordeste 11 Oeste 0 -- -- 78
2019-11-09 23:00:00 9.3 2 Este 14 Sudoeste 0 -- -- 74
2019-11-09 22:00:00 9.6 9 Sudoeste 16 Sudoeste 0 -- -- 73
2019-11-09 21:00:00 9.8 8 Sudoeste 14 Sudoeste 0 -- -- 71
2019-11-09 20:00:00 10.1 10 Oeste 19 Oeste 0 -- -- 70
2019-11-09 19:00:00 9.5 3 Sudeste 8 Oeste 0 -- -- 74
2019-11-09 18:00:00 10.1 5 Sur 8 Sudeste 0 -- -- 70
2019-11-09 17:00:00 11.4 6 Sur 20 Sudoeste 0 -- -- 64
2019-11-09 16:00:00 11.9 12 Sudoeste 28 Sudoeste 0 -- -- 60
2019-11-09 15:00:00 12.2 10 Sudoeste 21 Sur 0 -- -- 61
2019-11-09 14:00:00 10.9 9 Sudoeste 32 Sudoeste 0 -- -- 64
2019-11-09 13:00:00 11.9 8 Sudoeste 32 Sudoeste 0 -- -- 61
2019-11-09 12:00:00 10.2 14 Oeste 27 Noroeste 0 -- -- 65
2019-11-09 11:00:00 8.8 5 Noroeste 16 Sur 0 -- -- 74
2019-11-09 10:00:00 5.4 6 Este 11 Este 0 -- -- 82
2019-11-09 09:00:00 2.1 3 Norte 12 Norte 0 -- -- 93
2019-11-09 08:00:00 -0.2 5 Norte 14 Norte 0 -- -- 97
2019-11-09 07:00:00 -0.5 8 Norte 15 Noroeste 0 -- -- 96
2019-11-09 06:00:00 -0.3 3 Noroeste 10 Norte 0 -- -- 97
2019-11-09 05:00:00 -0.3 3 Este 10 Norte 0 -- -- 94
2019-11-09 04:00:00 0.8 2 Este 8 Norte 0 -- -- 91
2019-11-09 03:00:00 2.1 4 Sur 8 Sudoeste 0 -- -- 91
2019-11-09 02:00:00 2.3 3 Sudeste 10 Sudoeste 0 -- -- 89
2019-11-09 01:00:00 4.1 5 Noroeste 14 Oeste 0 -- -- 84
2019-11-09 00:00:00 4.3 5 Norte 18 Noroeste 0 -- -- 83
2019-11-08 23:00:00 4.8 3 Sudoeste 21 Sudoeste 0 -- -- 82
2019-11-08 22:00:00 5.4 6 Sudoeste 27 Oeste 0 -- -- 80
2019-11-08 21:00:00 6.2 15 Noroeste 32 Noroeste 0 -- -- 78
2019-11-08 20:00:00 7 14 Noroeste 35 Oeste 0 -- -- 75
2019-11-08 19:00:00 7.9 9 Noroeste 33 Noroeste 0 -- -- 71
2019-11-08 18:00:00 9.2 15 Noroeste 36 Noroeste 0 -- -- 63
2019-11-08 17:00:00 10.1 14 Oeste 34 Oeste 0 -- -- 62
2019-11-08 16:00:00 11.2 11 Sudoeste 31 Sudoeste 0 -- -- 58
2019-11-08 15:00:00 12.7 12 Sudoeste 32 Oeste 0 -- -- 52
2019-11-08 14:00:00 11.6 10 Oeste 29 Oeste 0 -- -- 56
2019-11-08 13:00:00 10.5 13 Sudoeste 26 Sudoeste 0 -- -- 62
2019-11-08 12:00:00 9.2 8 Oeste 22 Oeste 0 -- -- 66
2019-11-08 11:00:00 8.9 11 Sudoeste 25 Sudoeste 0 -- -- 64
2019-11-08 10:00:00 5.7 6 Noroeste 14 Noroeste 0 -- -- 78
2019-11-08 09:00:00 2.3 2 Este 8 Norte 0 -- -- 94
2019-11-08 08:00:00 0.2 4 Norte 7 Norte 0 -- -- 97
2019-11-08 07:00:00 0.8 3 Norte 7 Norte 0 -- -- 96
2019-11-08 06:00:00 1.5 4 Norte 10 Norte 0 -- -- 94
2019-11-08 05:00:00 2.1 4 Noroeste 9 Oeste 0 -- -- 93
2019-11-08 04:00:00 2.3 4 Noroeste 8 Norte 0 -- -- 95
2019-11-08 03:00:00 2.9 4 Noroeste 9 Oeste 0 -- -- 95
2019-11-08 02:00:00 2.9 3 Nordeste 8 Sudoeste 0 -- -- 93
2019-11-08 01:00:00 3.3 0 Calma 10 Norte 0 -- -- 93
2019-11-08 00:00:00 2.9 6 Norte 9 Norte 0 -- -- 89
2019-11-07 23:00:00 4.3 2 Sur 8 Oeste 0 -- -- 86
2019-11-07 22:00:00 6.4 3 Oeste 9 Noroeste 0 -- -- 77
2019-11-07 21:00:00 7.3 3 Este 10 Oeste 0 -- -- 77
2019-11-07 20:00:00 8.8 4 Nordeste 14 Sudoeste 0 -- -- 74
2019-11-07 19:00:00 10.6 9 Sudoeste 24 Sudoeste 0 -- -- 68
2019-11-07 18:00:00 11.5 10 Sudoeste 27 Sudoeste 0 -- -- 70
2019-11-07 17:00:00 12.3 7 Sur 22 Sudoeste 0 -- -- 73
2019-11-07 16:00:00 12.6 8 Sudoeste 22 Sudoeste 0 -- -- 71
2019-11-07 15:00:00 12.5 4 Norte 10 Nordeste 0 -- -- 75
2019-11-07 14:00:00 12.3 6 Nordeste 10 Nordeste 0 -- -- 77
2019-11-07 13:00:00 10.8 4 Noroeste 6 Noroeste 0 -- -- 76
2019-11-07 12:00:00 10.6 3 Sudeste 6 Norte 0 -- -- 75
2019-11-07 11:00:00 9.7 3 Noroeste 10 Noroeste 0 -- -- 78
2019-11-07 10:00:00 7.4 5 Norte 10 Norte 0 -- -- 86
2019-11-07 09:00:00 3.8 6 Norte 10 Norte 0 -- -- 98
2019-11-07 08:00:00 1.9 4 Norte 9 Noroeste 0 -- -- 97
2019-11-07 07:00:00 2.4 0 Calma 5 Norte 0 -- -- 97
2019-11-07 06:00:00 2.4 3 Oeste 8 Norte 0 -- -- 96
2019-11-07 05:00:00 2.8 8 Norte 13 Norte 0 -- -- 97
2019-11-07 04:00:00 2.8 5 Norte 9 Norte 0 -- -- 97
2019-11-07 03:00:00 3.3 0 Calma 9 Sur 0 -- -- 95
2019-11-07 02:00:00 4 2 Noroeste 5 Noroeste 0 -- -- 95
2019-11-07 01:00:00 4.8 4 Noroeste 8 Noroeste 0 -- -- 94
2019-11-07 00:00:00 5.7 3 Oeste 10 Noroeste 0 -- -- 89
2019-11-06 23:00:00 8 2 Sudoeste 10 Sudoeste 0 -- -- 80
2019-11-06 22:00:00 9.9 4 Oeste 13 Sudoeste 0 -- -- 76
2019-11-06 21:00:00 9.6 2 Sur 8 Sudoeste 0 -- -- 78
2019-11-06 20:00:00 11.1 4 Sudoeste 11 Sur 0 -- -- 71
2019-11-06 19:00:00 12 3 Sur 12 Sur 0 -- -- 70
2019-11-06 18:00:00 13.3 5 Sudoeste 14 Oeste 0 -- -- 65
2019-11-06 17:00:00 14.8 8 Oeste 23 Oeste 0 -- -- 59
2019-11-06 16:00:00 16 9 Noroeste 25 Noroeste 0 -- -- 54
2019-11-06 15:00:00 15.6 11 Oeste 29 Sudoeste 0 -- -- 54
2019-11-06 14:00:00 15 18 Sudoeste 27 Sudoeste 0 -- -- 58
2019-11-06 13:00:00 14.5 10 Sudoeste 22 Sudoeste 0 -- -- 58
2019-11-06 12:00:00 12.9 10 Noroeste 21 Noroeste 0 -- -- 62
2019-11-06 11:00:00 11.2 5 Norte 9 Norte 0 -- -- 73
2019-11-06 10:00:00 6.3 4 Norte 12 Norte 0 -- -- 85
2019-11-06 09:00:00 4.8 5 Norte 14 Norte 0 -- -- 87
2019-11-06 08:00:00 4.1 5 Norte 12 Norte 0 -- -- 92
2019-11-06 07:00:00 4 4 Este 13 Norte 0 -- -- 91
2019-11-06 06:00:00 3.8 5 Norte 13 Norte 0 -- -- 91
2019-11-06 05:00:00 4.3 7 Norte 12 Noroeste 0 -- -- 89
2019-11-06 04:00:00 5.7 2 Este 10 Oeste 0 -- -- 88
2019-11-06 03:00:00 6.7 5 Noroeste 9 Noroeste 0 -- -- 84
2019-11-06 02:00:00 7.6 6 Sudoeste 10 Oeste 0 -- -- 80
2019-11-06 01:00:00 7.9 4 Nordeste 22 Oeste 0 -- -- 77
2019-11-06 00:00:00 8.8 8 Oeste 18 Noroeste 0 -- -- 75